Terminal Aerodrome Forecast
Issued by NWS

Home | Current Version | Previous Version | Text Only | Print | Product List | Glossary On
Versions: 1 2 3 4 5 6 7 8 9 10 11 12 13 14 15 16 17 18 19 20 21 22 23 24 25 26 27 28 29 30 31 32 33
000
FTUS42 KCAE 191500 AAA
TAFCUB
TAF AMD
KCUB 191559Z 1916/2012 14006KT P6SM OVC006
      TEMPO 1916/1918 -SHRA
     FM191800 16010G15KT P6SM VCSH BKN009
     FM192000 18010G15KT 3SM SHRA OVC012
      TEMPO 1920/1924 VRB15KT 1 1/2SM SHRA OVC008
     FM200300 21006KT P6SM OVC007=

USA.gov is the U.S. government's official web portal to all federal, state and local government web resources and services.